Meratus Malino — POZH — position and weather

sailwx.info

Track history (hours):
 
Tides and Currents Weather Stations Pressure Air Temp Water Temp Dewpoint Dewpoint Depression Visibility Wind Speed Wind Dir Waves Ship Positions

Meratus Malino

Last reported at 2018-Aug-14 23:29 UTC. Time now 2018-Aug-14 23:43 UTC.
Position N 01°11' E 103°57'.

Length 149 m; draft 5.6 m.

Type: Cargo ship. MMSI: 525025089.

Date/timePositionNaut miles runAvg speedWind from/ knotsBaromVisibWave heightAir tempDewpointWater temp
2018-Aug-14 23:29N 01°11' E 103°57'3 5.4
2018-Aug-14 23:00N 01°12' E 103°55'3 5.1
2018-Aug-14 22:31N 01°11' E 103°57'0 0.0
2018-Aug-14 22:00N 01°11' E 103°57'0 0.0
2018-Aug-14 21:29N 01°11' E 103°57'0 0.1
2018-Aug-14 20:59N 01°11' E 103°57'0 0.0
2018-Aug-14 20:30N 01°11' E 103°57'0 0.1
2018-Aug-14 19:59N 01°11' E 103°57'0 0.1
2018-Aug-14 19:26N 01°11' E 103°57'0 0.0
2018-Aug-14 18:59N 01°11' E 103°57'0 0.0
2018-Aug-14 18:30N 01°11' E 103°57'0 0.1
2018-Aug-14 18:00N 01°11' E 103°57'0 0.0
2018-Aug-14 17:27N 01°11' E 103°57'0 0.0
2018-Aug-14 16:56N 01°11' E 103°57'0 0.0
2018-Aug-14 16:30N 01°11' E 103°57'0 0.0
2018-Aug-14 15:59N 01°11' E 103°57'0 0.0
2018-Aug-14 15:30N 01°11' E 103°57'0 0.0
2018-Aug-14 15:00N 01°11' E 103°57'0 0.0
2018-Aug-14 14:30N 01°11' E 103°57'0 0.0
2018-Aug-14 13:59N 01°11' E 103°57'0 0.0
2018-Aug-14 13:30N 01°11' E 103°57'0 0.0
2018-Aug-14 12:58N 01°11' E 103°57'0 0.0
2018-Aug-14 12:30N 01°11' E 103°57'0 0.0
2018-Aug-14 11:59N 01°11' E 103°57'0 0.0
2018-Aug-14 11:29N 01°11' E 103°57'0 0.1
2018-Aug-14 10:59N 01°11' E 103°57'0 0.0
2018-Aug-14 10:30N 01°11' E 103°57'0 0.0
2018-Aug-14 09:58N 01°11' E 103°57'0 0.0
2018-Aug-14 09:30N 01°11' E 103°57'0 0.0
2018-Aug-14 08:56N 01°11' E 103°57'1 1.2
2018-Aug-14 08:30N 01°11' E 103°57'5 9.7
2018-Aug-14 07:59N 01°13' E 104°02'612.5
2018-Aug-14 07:30N 01°14' E 104°08'611.2
2018-Aug-14 06:59N 01°14' E 104°14'612.1
2018-Aug-14 06:29N 01°14' E 104°08'611.2
2018-Aug-14 05:59N 01°13' E 104°02'5 9.6
2018-Aug-14 05:30N 01°11' E 103°58'4 8.3
2018-Aug-14 05:00N 01°09' E 103°54'4 7.5
2018-Aug-14 04:30N 01°05' E 103°53'1 1.7
2018-Aug-14 04:00N 01°04' E 103°54'0 0.9
2018-Aug-14 03:28N 01°05' E 103°54'0 0.8
2018-Aug-14 03:00N 01°05' E 103°54'0 0.2
2018-Aug-14 02:29N 01°05' E 103°54'0 0.3
2018-Aug-14 02:00N 01°05' E 103°54'0 0.0
2018-Aug-14 01:28N 01°05' E 103°54'0 0.0
2018-Aug-14 00:58N 01°05' E 103°54'0 0.0
2018-Aug-14 00:30N 01°05' E 103°54'0 0.0
2018-Aug-13 23:59N 01°05' E 103°54'0 0.0
2018-Aug-13 23:29N 01°05' E 103°54'0 0.0
2018-Aug-13 22:57N 01°05' E 103°54'0 0.0
2018-Aug-13 22:28N 01°05' E 103°54'0 0.0
2018-Aug-13 21:59N 01°05' E 103°54'0 0.0
2018-Aug-13 21:30N 01°05' E 103°54'0 0.0
2018-Aug-13 20:58N 01°05' E 103°54'0 0.0
2018-Aug-13 20:26N 01°05' E 103°54'0 0.0
2018-Aug-13 20:00N 01°05' E 103°54'0 0.0
2018-Aug-13 19:27N 01°05' E 103°54'0 0.0
2018-Aug-13 18:58N 01°05' E 103°54'0 0.0
2018-Aug-13 18:30N 01°05' E 103°54'0 0.0
2018-Aug-13 17:59N 01°05' E 103°54'0 0.0
2018-Aug-13 17:30N 01°05' E 103°54'0 0.0
2018-Aug-13 16:59N 01°05' E 103°54'0 0.0
2018-Aug-13 16:30N 01°05' E 103°54'0 0.0
2018-Aug-13 15:59N 01°05' E 103°54'0 0.0
2018-Aug-13 15:26N 01°05' E 103°54'0 0.0
2018-Aug-13 14:55N 01°05' E 103°54'0 0.0
2018-Aug-13 14:31N 01°05' E 103°54'0 0.0
2018-Aug-13 13:57N 01°05' E 103°54'0 0.0
2018-Aug-13 13:30N 01°05' E 103°54'0 0.0
2018-Aug-13 13:00N 01°05' E 103°54'0 0.0
2018-Aug-13 12:30N 01°05' E 103°54'0 0.0
2018-Aug-13 11:59N 01°05' E 103°54'0 0.0
2018-Aug-13 11:30N 01°05' E 103°54'0 0.0
2018-Aug-13 11:00N 01°05' E 103°54'0 0.0
2018-Aug-13 10:30N 01°05' E 103°54'0 0.0
2018-Aug-13 10:00N 01°05' E 103°54'0 0.0
2018-Aug-13 09:30N 01°05' E 103°54'0 0.0
2018-Aug-13 09:00N 01°05' E 103°54'0 0.0
2018-Aug-13 08:30N 01°05' E 103°54'0 0.0
2018-Aug-13 08:00N 01°05' E 103°54'0 0.0
2018-Aug-13 07:30N 01°05' E 103°54'0 0.0
2018-Aug-13 07:00N 01°05' E 103°54'0 0.0
2018-Aug-13 06:30N 01°05' E 103°54'0 0.0
2018-Aug-13 06:00N 01°05' E 103°54'0 0.0
2018-Aug-13 05:30N 01°05' E 103°54'0 0.0
2018-Aug-13 05:00N 01°05' E 103°54'0 0.0
2018-Aug-13 04:30N 01°05' E 103°54'0 0.0
2018-Aug-13 04:00N 01°05' E 103°54'0 0.0
2018-Aug-13 03:30N 01°05' E 103°54'0 0.0
2018-Aug-13 02:59N 01°05' E 103°54'0 0.0
2018-Aug-13 02:30N 01°05' E 103°54'0 0.0
2018-Aug-13 01:57N 01°05' E 103°54'0 0.0
2018-Aug-13 01:30N 01°05' E 103°54'0 0.0
2018-Aug-13 01:00N 01°05' E 103°54'0 0.0
2018-Aug-13 00:30N 01°05' E 103°54'0 0.0
2018-Aug-12 23:59N 01°05' E 103°54'0 0.0
2018-Aug-12 23:30N 01°05' E 103°54'0 0.0
2018-Aug-12 22:59N 01°05' E 103°54'0 0.0
2018-Aug-12 22:30N 01°05' E 103°54'0 0.0
2018-Aug-12 22:00N 01°05' E 103°54'0 0.0
2018-Aug-12 21:28N 01°05' E 103°54'0 0.0
2018-Aug-12 20:59N 01°05' E 103°54'0 0.0
2018-Aug-12 20:30N 01°05' E 103°54'0 0.0
2018-Aug-12 19:59N 01°05' E 103°54'0 0.0
2018-Aug-12 19:30N 01°05' E 103°54'0 0.0
2018-Aug-12 18:59N 01°05' E 103°54'0 0.0
2018-Aug-12 18:28N 01°05' E 103°54'0 0.0
2018-Aug-12 18:00N 01°05' E 103°54'0 0.0
2018-Aug-12 17:30N 01°05' E 103°54'0 0.0
2018-Aug-12 16:59N 01°05' E 103°54'0 0.0
2018-Aug-12 16:30N 01°05' E 103°54'0 0.0
2018-Aug-12 15:59N 01°05' E 103°54'0 0.0
2018-Aug-12 15:30N 01°05' E 103°54'0 0.0
2018-Aug-12 14:59N 01°05' E 103°54'0 0.0
2018-Aug-12 14:30N 01°05' E 103°54'0 0.0
2018-Aug-12 13:59N 01°05' E 103°54'0 0.0
2018-Aug-12 13:30N 01°05' E 103°54'0 0.0
2018-Aug-12 12:59N 01°05' E 103°54'0 0.0
2018-Aug-12 12:30N 01°05' E 103°54'0 0.0
2018-Aug-12 11:59N 01°05' E 103°54'0 0.0
2018-Aug-12 11:30N 01°05' E 103°54'0 0.0
2018-Aug-12 10:59N 01°05' E 103°54'0 0.0
2018-Aug-12 10:30N 01°05' E 103°54'0 0.0
2018-Aug-12 09:59N 01°05' E 103°54'0 0.0
2018-Aug-12 09:30N 01°05' E 103°54'0 0.0
2018-Aug-12 09:01N 01°05' E 103°54'0 0.0
2018-Aug-12 08:30N 01°05' E 103°54'0 0.0
2018-Aug-12 07:59N 01°05' E 103°54'0 0.0
2018-Aug-12 07:30N 01°05' E 103°54'0 0.0
2018-Aug-12 07:00N 01°05' E 103°54'0 0.0
2018-Aug-12 06:30N 01°05' E 103°54'0 0.0
2018-Aug-12 06:01N 01°05' E 103°54'0 0.0
2018-Aug-12 05:30N 01°05' E 103°54'0 0.0
2018-Aug-12 04:59N 01°05' E 103°54'0 0.0
2018-Aug-12 04:30N 01°05' E 103°54'0 0.0
2018-Aug-12 03:59N 01°05' E 103°54'0 0.0
2018-Aug-12 03:30N 01°05' E 103°54'0 0.0
2018-Aug-12 02:59N 01°05' E 103°54'0 0.0
2018-Aug-12 02:31N 01°05' E 103°54'0 0.0
2018-Aug-12 01:57N 01°05' E 103°54'0 0.0
2018-Aug-12 01:30N 01°05' E 103°54'0 0.0
2018-Aug-12 01:00N 01°05' E 103°54'0 0.0
2018-Aug-12 00:30N 01°05' E 103°54'0 0.0
2018-Aug-11 23:58N 01°05' E 103°54'0 0.0
2018-Aug-11 23:30N 01°05' E 103°54'0 0.0
2018-Aug-11 22:59N 01°05' E 103°54'0 0.0
2018-Aug-11 22:30N 01°05' E 103°54'0 0.0
2018-Aug-11 22:00N 01°05' E 103°54'0 0.0
2018-Aug-11 21:31N 01°05' E 103°54'0 0.0
2018-Aug-11 20:59N 01°05' E 103°54'0 0.0
2018-Aug-11 20:29N 01°05' E 103°54'0 0.0
2018-Aug-11 20:00N 01°05' E 103°54'0 0.0
2018-Aug-11 19:30N 01°05' E 103°54'0 0.0
2018-Aug-11 19:00N 01°05' E 103°54'0 0.0
2018-Aug-11 18:31N 01°05' E 103°54'0 0.0
2018-Aug-11 18:01N 01°05' E 103°54'0 0.0
2018-Aug-11 17:30N 01°05' E 103°54'0 0.0
2018-Aug-11 16:56N 01°05' E 103°54'0 0.0
2018-Aug-11 16:30N 01°05' E 103°54'0 0.0
2018-Aug-11 16:00N 01°05' E 103°54'0 0.0
2018-Aug-11 15:30N 01°05' E 103°54'0 0.0
2018-Aug-11 14:59N 01°05' E 103°54'0 0.0
2018-Aug-11 14:30N 01°05' E 103°54'0 0.0
2018-Aug-11 13:59N 01°05' E 103°54'0 0.0
2018-Aug-11 13:30N 01°05' E 103°54'0 0.0
2018-Aug-11 12:59N 01°05' E 103°54'0 0.0
2018-Aug-11 12:30N 01°05' E 103°54'0 0.0
2018-Aug-11 12:00N 01°05' E 103°54'0 0.0
2018-Aug-11 11:30N 01°05' E 103°54'0 0.0
2018-Aug-11 10:59N 01°05' E 103°54'0 0.0
2018-Aug-11 10:30N 01°05' E 103°54'0 0.0
2018-Aug-11 09:59N 01°05' E 103°54'0 0.0
2018-Aug-11 09:30N 01°05' E 103°54'0 0.0
2018-Aug-11 09:01N 01°05' E 103°54'0 0.0
2018-Aug-11 08:30N 01°05' E 103°54'0 0.0
2018-Aug-11 07:59N 01°05' E 103°54'0 0.0
2018-Aug-11 07:30N 01°05' E 103°54'0 0.0
2018-Aug-11 06:59N 01°05' E 103°54'0 0.0
2018-Aug-11 06:31N 01°05' E 103°54'0 0.0
2018-Aug-11 05:59N 01°05' E 103°54'0 0.0
2018-Aug-11 05:30N 01°05' E 103°54'0 0.0
2018-Aug-11 05:00N 01°05' E 103°54'0 0.0
2018-Aug-11 04:29N 01°05' E 103°54'0 0.0
2018-Aug-11 03:59N 01°05' E 103°54'0 0.0
2018-Aug-11 03:31N 01°05' E 103°54'0 0.0
2018-Aug-11 03:00N 01°05' E 103°54'0 0.0
2018-Aug-11 02:30N 01°05' E 103°54'0 0.0
2018-Aug-11 01:59N 01°05' E 103°54'0 0.0
2018-Aug-11 01:30N 01°05' E 103°54'0 0.0
2018-Aug-11 00:59N 01°05' E 103°54'0 0.0
2018-Aug-11 00:30N 01°05' E 103°54'0 0.0
2018-Aug-11 00:00N 01°05' E 103°54'0 0.0
2018-Aug-10 23:30N 01°05' E 103°54'0 0.0
2018-Aug-10 23:00N 01°05' E 103°54'0 0.0
2018-Aug-10 22:30N 01°05' E 103°54'0 0.0
2018-Aug-10 22:00N 01°05' E 103°54'0 0.0
2018-Aug-10 21:30N 01°05' E 103°54'0 0.0
2018-Aug-10 21:00N 01°05' E 103°54'0 0.0
2018-Aug-10 20:30N 01°05' E 103°54'0 0.0
2018-Aug-10 20:00N 01°05' E 103°54'0 0.0
2018-Aug-10 19:30N 01°05' E 103°54'0 0.0
2018-Aug-10 19:00N 01°05' E 103°54'0 0.0
2018-Aug-10 18:30N 01°05' E 103°54'0 0.0
2018-Aug-10 17:54N 01°05' E 103°54'0 0.0
2018-Aug-10 17:30N 01°05' E 103°54'0 0.0
2018-Aug-10 16:58N 01°05' E 103°54'0 0.0
2018-Aug-10 16:29N 01°05' E 103°54'0 0.0
2018-Aug-10 16:00N 01°05' E 103°54'0 0.0
2018-Aug-10 15:30N 01°05' E 103°54'0 0.0
2018-Aug-10 14:58N 01°05' E 103°54'0 0.0
2018-Aug-10 14:30N 01°05' E 103°54'0 0.0
2018-Aug-10 14:00N 01°05' E 103°54'0 0.0
2018-Aug-10 13:30N 01°05' E 103°54'0 0.0
2018-Aug-10 13:00N 01°05' E 103°54'0 0.0
2018-Aug-10 12:30N 01°05' E 103°54'0 0.0
2018-Aug-10 11:59N 01°05' E 103°54'0 0.0
2018-Aug-10 11:30N 01°05' E 103°54'0 0.0
2018-Aug-10 10:59N 01°05' E 103°54'0 0.0
2018-Aug-10 10:30N 01°05' E 103°54'0 0.0
2018-Aug-10 09:59N 01°05' E 103°54'0 0.0
2018-Aug-10 09:29N 01°05' E 103°54'0 0.0
2018-Aug-10 09:00N 01°05' E 103°54'0 0.0
2018-Aug-10 08:30N 01°05' E 103°54'0 0.0
2018-Aug-10 08:00N 01°05' E 103°54'0 0.0
2018-Aug-10 07:30N 01°05' E 103°54'0 0.0
2018-Aug-10 06:58N 01°05' E 103°54'0 0.0
2018-Aug-10 06:30N 01°05' E 103°54'0 0.0
2018-Aug-10 05:59N 01°05' E 103°54'0 0.0
2018-Aug-10 05:30N 01°05' E 103°54'0 0.0
2018-Aug-10 04:59N 01°05' E 103°54'0 0.0
2018-Aug-10 04:29N 01°05' E 103°54'0 0.0
2018-Aug-10 03:59N 01°05' E 103°54'0 0.0
2018-Aug-10 03:30N 01°05' E 103°54'0 0.0
2018-Aug-10 03:00N 01°05' E 103°54'0 0.0
2018-Aug-10 02:29N 01°05' E 103°54'0 0.0
2018-Aug-10 02:00N 01°05' E 103°54'0 0.0
2018-Aug-10 01:31N 01°05' E 103°54'0 0.0
2018-Aug-10 01:00N 01°05' E 103°54'0 0.0
2018-Aug-10 00:30N 01°05' E 103°54'0 0.0
2018-Aug-09 23:59N 01°05' E 103°54'0 0.0
2018-Aug-09 23:31N 01°05' E 103°54'0 0.0
2018-Aug-09 22:59N 01°05' E 103°54'0 0.0
2018-Aug-09 22:30N 01°05' E 103°54'0 0.0
2018-Aug-09 22:00N 01°05' E 103°54'0 0.0
2018-Aug-09 21:30N 01°05' E 103°54'0 0.0
2018-Aug-09 21:00N 01°05' E 103°54'0 0.0
2018-Aug-09 20:30N 01°05' E 103°54'0 0.0
2018-Aug-09 19:58N 01°05' E 103°54'0 0.0
2018-Aug-09 19:29N 01°05' E 103°54'0 0.0
2018-Aug-09 19:00N 01°05' E 103°54'0 0.0
2018-Aug-09 18:26N 01°05' E 103°54'0 0.0
2018-Aug-09 18:00N 01°05' E 103°54'0 0.0
2018-Aug-09 17:30N 01°05' E 103°54'0 0.0
2018-Aug-09 16:58N 01°05' E 103°54'0 0.0
2018-Aug-09 16:30N 01°05' E 103°54'0 0.0
2018-Aug-09 16:00N 01°05' E 103°54'0 0.0
2018-Aug-09 15:29N 01°05' E 103°54'0 0.0
2018-Aug-09 15:00N 01°05' E 103°54'0 0.0
2018-Aug-09 14:30N 01°05' E 103°54'0 0.0
2018-Aug-09 14:00N 01°05' E 103°54'0 0.0
2018-Aug-09 13:30N 01°05' E 103°54'0 0.0
2018-Aug-09 13:00N 01°05' E 103°54'0 0.0
2018-Aug-09 12:30N 01°05' E 103°54'0 0.0
2018-Aug-09 11:57N 01°05' E 103°54'0 0.0
2018-Aug-09 11:30N 01°05' E 103°54'0 0.0
2018-Aug-09 11:00N 01°05' E 103°54'0 0.0
2018-Aug-09 10:30N 01°05' E 103°54'0 0.0
2018-Aug-09 10:00N 01°05' E 103°54'0 0.0
2018-Aug-09 09:30N 01°05' E 103°54'0 0.0
2018-Aug-09 09:00N 01°05' E 103°54'0 0.0
2018-Aug-09 08:30N 01°05' E 103°54'0 0.0
2018-Aug-09 08:00N 01°05' E 103°54'0 0.4
2018-Aug-09 07:30N 01°05' E 103°54'0 0.2
2018-Aug-09 06:59N 01°05' E 103°54'0 0.0
2018-Aug-09 06:30N 01°05' E 103°54'0 0.0
2018-Aug-09 06:00N 01°05' E 103°54'0 0.0
2018-Aug-09 05:30N 01°05' E 103°54'0 0.0
2018-Aug-09 05:00N 01°05' E 103°54'0 0.0
2018-Aug-09 04:30N 01°05' E 103°54'0 0.0
2018-Aug-09 04:00N 01°05' E 103°54'0 0.0
2018-Aug-09 03:30N 01°05' E 103°54'0 0.0
2018-Aug-09 03:00N 01°05' E 103°54'0 0.0
2018-Aug-09 02:30N 01°05' E 103°54'0 0.0
2018-Aug-09 02:00N 01°05' E 103°54'0 0.0
2018-Aug-09 01:30N 01°05' E 103°54'0 0.0
2018-Aug-09 01:00N 01°05' E 103°54'0 0.0
2018-Aug-09 00:31N 01°05' E 103°54'0 0.0
2018-Aug-09 00:00N 01°05' E 103°54'0 0.0
2018-Aug-08 23:30N 01°05' E 103°54'0 0.0
2018-Aug-08 23:00N 01°05' E 103°54'0 0.0
2018-Aug-08 22:30N 01°05' E 103°54'0 0.0
2018-Aug-08 21:59N 01°05' E 103°54'0 0.0
2018-Aug-08 21:30N 01°05' E 103°54'0 0.0
2018-Aug-08 20:59N 01°05' E 103°54'0 0.0
2018-Aug-08 20:31N 01°05' E 103°54'0 0.0
2018-Aug-08 19:59N 01°05' E 103°54'0 0.0
2018-Aug-08 19:30N 01°05' E 103°54'0 0.0
2018-Aug-08 19:00N 01°05' E 103°54'0 0.0
2018-Aug-08 18:30N 01°05' E 103°54'0 0.0
2018-Aug-08 17:59N 01°05' E 103°54'0 0.0
2018-Aug-08 17:30N 01°05' E 103°54'0 0.0
2018-Aug-08 17:00N 01°05' E 103°54'0 0.0
2018-Aug-08 16:30N 01°05' E 103°54'0 0.0
2018-Aug-08 16:00N 01°05' E 103°54'0 0.0
2018-Aug-08 15:30N 01°05' E 103°54'0 0.0
2018-Aug-08 14:59N 01°05' E 103°54'0 0.0
2018-Aug-08 14:31N 01°05' E 103°54'0 0.0
2018-Aug-08 13:59N 01°05' E 103°54'0 0.0
2018-Aug-08 13:30N 01°05' E 103°54'0 0.0
2018-Aug-08 13:00N 01°05' E 103°54'0 0.0
2018-Aug-08 12:30N 01°05' E 103°54'0 0.0
2018-Aug-08 11:59N 01°05' E 103°54'0 0.0
2018-Aug-08 11:30N 01°05' E 103°54'0 0.0
2018-Aug-08 11:00N 01°05' E 103°54'0 0.0
2018-Aug-08 10:30N 01°05' E 103°54'0 0.0
2018-Aug-08 10:00N 01°05' E 103°54'0 0.0
2018-Aug-08 09:29N 01°05' E 103°54'0 0.0
2018-Aug-08 08:59N 01°05' E 103°54'0 0.0
2018-Aug-08 08:30N 01°05' E 103°54'0 0.0
2018-Aug-08 07:58N 01°05' E 103°54'0 0.0
2018-Aug-08 07:26N 01°05' E 103°54'0 0.0
2018-Aug-08 06:57N 01°05' E 103°54'0 0.0
2018-Aug-08 06:29N 01°05' E 103°54'0 0.0
2018-Aug-08 05:56N 01°05' E 103°54'0 0.0
2018-Aug-08 05:30N 01°05' E 103°54'0 0.0
2018-Aug-08 04:59N 01°05' E 103°54'0 0.0
2018-Aug-08 04:23N 01°05' E 103°54'0 0.0
2018-Aug-08 04:00N 01°05' E 103°54'0 0.0
2018-Aug-08 03:26N 01°05' E 103°54'0 0.0
2018-Aug-08 03:00N 01°05' E 103°54'0 0.0
2018-Aug-08 02:30N 01°05' E 103°54'0 0.0
2018-Aug-08 01:59N 01°05' E 103°54'0 0.0
2018-Aug-08 01:30N 01°05' E 103°54'0 0.0
2018-Aug-08 01:00N 01°05' E 103°54'0 0.0
2018-Aug-08 00:30N 01°05' E 103°54'0 0.0
2018-Aug-07 23:59N 01°05' E 103°54'0 0.0
2018-Aug-07 23:30N 01°05' E 103°54'0 0.0
2018-Aug-07 22:59N 01°05' E 103°54'0 0.0
2018-Aug-07 22:30N 01°05' E 103°54'0 0.0
2018-Aug-07 22:00N 01°05' E 103°54'0 0.0
2018-Aug-07 21:30N 01°05' E 103°54'0 0.0
2018-Aug-07 20:59N 01°05' E 103°54'0 0.0
2018-Aug-07 20:30N 01°05' E 103°54'0 0.0
2018-Aug-07 19:58N 01°05' E 103°54'0 0.0
2018-Aug-07 19:28N 01°05' E 103°54'0 0.0
2018-Aug-07 18:59N 01°05' E 103°54'0 0.0
2018-Aug-07 18:30N 01°05' E 103°54'0 0.0
2018-Aug-07 18:00N 01°05' E 103°54'0 0.0
2018-Aug-07 17:30N 01°05' E 103°54'0 0.0
2018-Aug-07 17:00N 01°05' E 103°54'0 0.0
2018-Aug-07 16:30N 01°05' E 103°54'0 0.0
2018-Aug-07 16:00N 01°05' E 103°54'0 0.0
2018-Aug-07 15:30N 01°05' E 103°54'0 0.0
2018-Aug-07 14:59N 01°05' E 103°54'0 0.0
2018-Aug-07 14:30N 01°05' E 103°54'0 0.0
2018-Aug-07 14:00N 01°05' E 103°54'0 0.0
2018-Aug-07 13:30N 01°05' E 103°54'0 0.0
2018-Aug-07 13:00N 01°05' E 103°54'0 0.0
2018-Aug-07 12:30N 01°05' E 103°54'0 0.0
2018-Aug-07 12:00N 01°05' E 103°54'0 0.0
2018-Aug-07 11:30N 01°05' E 103°54'0 0.0
2018-Aug-07 10:58N 01°05' E 103°54'0 0.0
2018-Aug-07 10:30N 01°05' E 103°54'0 0.0
2018-Aug-07 10:00N 01°05' E 103°54'0 0.0
2018-Aug-07 09:29N 01°05' E 103°54'0 0.0
2018-Aug-07 08:57N 01°05' E 103°54'0 0.0
2018-Aug-07 08:26N 01°05' E 103°54'0 0.0
2018-Aug-07 07:57N 01°05' E 103°54'0 0.0
2018-Aug-07 07:27N 01°05' E 103°54'0 0.0
2018-Aug-07 07:00N 01°05' E 103°54'0 0.0
2018-Aug-07 06:30N 01°05' E 103°54'0 0.0
2018-Aug-07 06:00N 01°05' E 103°54'0 0.0
2018-Aug-07 05:30N 01°05' E 103°54'0 0.0
2018-Aug-07 05:00N 01°05' E 103°54'0 0.0
2018-Aug-07 04:30N 01°05' E 103°54'0 0.0
2018-Aug-07 03:56N 01°05' E 103°54'0 0.0
2018-Aug-07 03:30N 01°05' E 103°54'0 0.0
2018-Aug-07 03:00N 01°05' E 103°54'0 0.0
2018-Aug-07 02:30N 01°05' E 103°54'0 0.0
2018-Aug-07 01:59N 01°05' E 103°54'0 0.0
2018-Aug-07 01:30N 01°05' E 103°54'0 0.0
2018-Aug-07 01:00N 01°05' E 103°54'0 0.0
2018-Aug-07 00:30N 01°05' E 103°54'0 0.0
2018-Aug-07 00:00N 01°05' E 103°54'0 0.0
2018-Aug-06 23:30N 01°05' E 103°54'0 0.0
2018-Aug-06 22:59N 01°05' E 103°54'0 0.0
2018-Aug-06 22:31N 01°05' E 103°54'0 0.0
2018-Aug-06 22:00N 01°05' E 103°54'0 0.0
2018-Aug-06 21:29N 01°05' E 103°54'0 0.0
2018-Aug-06 20:59N 01°05' E 103°54'0 0.0
2018-Aug-06 20:30N 01°05' E 103°54'0 0.0
2018-Aug-06 19:59N 01°05' E 103°54'0 0.0
2018-Aug-06 19:31N 01°05' E 103°54'0 0.0
2018-Aug-06 19:00N 01°05' E 103°54'0 0.0
2018-Aug-06 18:30N 01°05' E 103°54'0 0.0
2018-Aug-06 17:59N 01°05' E 103°54'0 0.0
2018-Aug-06 17:30N 01°05' E 103°54'0 0.0
2018-Aug-06 17:01N 01°05' E 103°54'0 0.0
2018-Aug-06 16:30N 01°05' E 103°54'0 0.0
2018-Aug-06 15:59N 01°05' E 103°54'0 0.0
2018-Aug-06 15:30N 01°05' E 103°54'0 0.0
2018-Aug-06 14:59N 01°05' E 103°54'0 0.0
2018-Aug-06 14:31N 01°05' E 103°54'0 0.0
2018-Aug-06 13:59N 01°05' E 103°54'0 0.0
2018-Aug-06 13:28N 01°05' E 103°54'0 0.0
2018-Aug-06 12:59N 01°05' E 103°54'0 0.0
2018-Aug-06 12:30N 01°05' E 103°54'0 0.0
2018-Aug-06 12:01N 01°05' E 103°54'0 0.0
2018-Aug-06 11:30N 01°05' E 103°54'0 0.0
2018-Aug-06 10:58N 01°05' E 103°54'0 0.0
2018-Aug-06 10:30N 01°05' E 103°54'0 0.0
2018-Aug-06 09:55N 01°05' E 103°54'0 0.0
2018-Aug-06 09:28N 01°05' E 103°54'0 0.0
2018-Aug-06 08:59N 01°05' E 103°54'0 0.0
2018-Aug-06 08:30N 01°05' E 103°54'0 0.0
2018-Aug-06 07:52N 01°05' E 103°54'0 0.0
2018-Aug-06 07:29N 01°05' E 103°54'0 0.0
2018-Aug-06 06:59N 01°05' E 103°54'0 0.0
2018-Aug-06 06:26N 01°05' E 103°54'0 0.0
2018-Aug-06 06:00N 01°05' E 103°54'0 0.0
2018-Aug-06 05:31N 01°05' E 103°54'0 0.0
2018-Aug-06 04:57N 01°05' E 103°54'0 0.0
2018-Aug-06 04:30N 01°05' E 103°54'0 0.0
2018-Aug-05 21:13N 01°05' E 103°54'0 0.0
2018-Aug-05 21:00N 01°05' E 103°54'0 0.0
2018-Aug-05 20:30N 01°05' E 103°54'0 0.0
2018-Aug-05 19:53N 01°05' E 103°54'0 0.0
2018-Aug-05 19:30N 01°05' E 103°54'0 0.0
2018-Aug-05 18:59N 01°05' E 103°54'0 0.0
2018-Aug-05 18:29N 01°05' E 103°54'0 0.0
2018-Aug-05 17:59N 01°05' E 103°54'0 0.0
2018-Aug-05 17:30N 01°05' E 103°54'0 0.0
2018-Aug-05 16:59N 01°05' E 103°54'0 0.0
2018-Aug-05 16:29N 01°05' E 103°54'0 0.0
2018-Aug-05 16:01N 01°05' E 103°54'0 0.0
2018-Aug-05 15:30N 01°05' E 103°54'0 0.0
2018-Aug-05 15:01N 01°05' E 103°54'0 0.0
2018-Aug-05 14:30N 01°05' E 103°54'0 0.0
2018-Aug-05 13:30N 01°05' E 103°54'0 0.0
2018-Aug-05 12:59N 01°05' E 103°54'0 0.0
2018-Aug-05 12:30N 01°05' E 103°54'0 0.0
2018-Aug-05 12:00N 01°05' E 103°54'0 0.0
2018-Aug-05 11:30N 01°05' E 103°54'0 0.0
2018-Aug-05 10:59N 01°05' E 103°54'0 0.0
2018-Aug-05 10:30N 01°05' E 103°54'0 0.0
2018-Aug-05 09:58N 01°05' E 103°54'0 0.0
2018-Aug-05 09:30N 01°05' E 103°54'0 0.0
2018-Aug-05 09:01N 01°05' E 103°54'0 0.0
2018-Aug-05 08:29N 01°05' E 103°54'0 0.0
2018-Aug-05 08:00N 01°05' E 103°54'0 0.0
2018-Aug-05 07:29N 01°05' E 103°54'0 0.0
2018-Aug-05 06:59N 01°05' E 103°54'0 0.0
2018-Aug-05 06:26N 01°05' E 103°54'0 0.0
2018-Aug-05 05:52N 01°05' E 103°54'0 0.0
2018-Aug-05 05:30N 01°05' E 103°54'0 0.0
2018-Aug-05 05:00N 01°05' E 103°54'0 0.0
2018-Aug-05 04:30N 01°05' E 103°54'0 0.0
2018-Aug-05 03:58N 01°05' E 103°54'0 0.0
2018-Aug-05 03:30N 01°05' E 103°54'0 0.0
2018-Aug-05 03:00N 01°05' E 103°54'0 0.0
2018-Aug-05 02:31N 01°05' E 103°54'0 0.0
2018-Aug-05 02:00N 01°05' E 103°54'0 0.0
2018-Aug-05 01:30N 01°05' E 103°54'0 0.0
2018-Aug-05 00:59N 01°05' E 103°54'0 0.0
2018-Aug-05 00:30N 01°05' E 103°54'0 0.0
2018-Aug-05 00:00N 01°05' E 103°54'0 0.0
2018-Aug-04 23:30N 01°05' E 103°54'  
Track history (hours):
 
Tides and Currents Weather Stations Pressure Air Temp Water Temp Dewpoint Dewpoint Depression Visibility Wind Speed Wind Dir Waves Ship Positions

Meratus Malino

Last reported at 2018-Aug-14 23:29 UTC. Time now 2018-Aug-14 23:43 UTC.
Position N 01°11' E 103°57'.

Length 149 m; draft 5.6 m.

Type: Cargo ship. MMSI: 525025089.

Date/timePositionNaut miles runAvg speedWind from/ knotsBaromVisibWave heightAir tempDewpointWater temp
2018-Aug-14 23:29N 01°11' E 103°57'3 5.4
2018-Aug-14 23:00N 01°12' E 103°55'3 5.1
2018-Aug-14 22:31N 01°11' E 103°57'0 0.0
2018-Aug-14 22:00N 01°11' E 103°57'0 0.0
2018-Aug-14 21:29N 01°11' E 103°57'0 0.1
2018-Aug-14 20:59N 01°11' E 103°57'0 0.0
2018-Aug-14 20:30N 01°11' E 103°57'0 0.1
2018-Aug-14 19:59N 01°11' E 103°57'0 0.1
2018-Aug-14 19:26N 01°11' E 103°57'0 0.0
2018-Aug-14 18:59N 01°11' E 103°57'0 0.0
2018-Aug-14 18:30N 01°11' E 103°57'0 0.1
2018-Aug-14 18:00N 01°11' E 103°57'0 0.0
2018-Aug-14 17:27N 01°11' E 103°57'0 0.0
2018-Aug-14 16:56N 01°11' E 103°57'0 0.0
2018-Aug-14 16:30N 01°11' E 103°57'0 0.0
2018-Aug-14 15:59N 01°11' E 103°57'0 0.0
2018-Aug-14 15:30N 01°11' E 103°57'0 0.0
2018-Aug-14 15:00N 01°11' E 103°57'0 0.0
2018-Aug-14 14:30N 01°11' E 103°57'0 0.0
2018-Aug-14 13:59N 01°11' E 103°57'0 0.0
2018-Aug-14 13:30N 01°11' E 103°57'0 0.0
2018-Aug-14 12:58N 01°11' E 103°57'0 0.0
2018-Aug-14 12:30N 01°11' E 103°57'0 0.0
2018-Aug-14 11:59N 01°11' E 103°57'0 0.0
2018-Aug-14 11:29N 01°11' E 103°57'0 0.1
2018-Aug-14 10:59N 01°11' E 103°57'0 0.0
2018-Aug-14 10:30N 01°11' E 103°57'0 0.0
2018-Aug-14 09:58N 01°11' E 103°57'0 0.0
2018-Aug-14 09:30N 01°11' E 103°57'0 0.0
2018-Aug-14 08:56N 01°11' E 103°57'1 1.2
2018-Aug-14 08:30N 01°11' E 103°57'5 9.7
2018-Aug-14 07:59N 01°13' E 104°02'612.5
2018-Aug-14 07:30N 01°14' E 104°08'611.2
2018-Aug-14 06:59N 01°14' E 104°14'612.1
2018-Aug-14 06:29N 01°14' E 104°08'611.2
2018-Aug-14 05:59N 01°13' E 104°02'5 9.6
2018-Aug-14 05:30N 01°11' E 103°58'4 8.3
2018-Aug-14 05:00N 01°09' E 103°54'4 7.5
2018-Aug-14 04:30N 01°05' E 103°53'1 1.7
2018-Aug-14 04:00N 01°04' E 103°54'0 0.9
2018-Aug-14 03:28N 01°05' E 103°54'0 0.8
2018-Aug-14 03:00N 01°05' E 103°54'0 0.2
2018-Aug-14 02:29N 01°05' E 103°54'0 0.3
2018-Aug-14 02:00N 01°05' E 103°54'0 0.0
2018-Aug-14 01:28N 01°05' E 103°54'0 0.0
2018-Aug-14 00:58N 01°05' E 103°54'0 0.0
2018-Aug-14 00:30N 01°05' E 103°54'0 0.0
2018-Aug-13 23:59N 01°05' E 103°54'0 0.0
2018-Aug-13 23:29N 01°05' E 103°54'0 0.0
2018-Aug-13 22:57N 01°05' E 103°54'0 0.0
2018-Aug-13 22:28N 01°05' E 103°54'0 0.0
2018-Aug-13 21:59N 01°05' E 103°54'0 0.0
2018-Aug-13 21:30N 01°05' E 103°54'0 0.0
2018-Aug-13 20:58N 01°05' E 103°54'0 0.0
2018-Aug-13 20:26N 01°05' E 103°54'0 0.0
2018-Aug-13 20:00N 01°05' E 103°54'0 0.0
2018-Aug-13 19:27N 01°05' E 103°54'0 0.0
2018-Aug-13 18:58N 01°05' E 103°54'0 0.0
2018-Aug-13 18:30N 01°05' E 103°54'0 0.0
2018-Aug-13 17:59N 01°05' E 103°54'0 0.0
2018-Aug-13 17:30N 01°05' E 103°54'0 0.0
2018-Aug-13 16:59N 01°05' E 103°54'0 0.0
2018-Aug-13 16:30N 01°05' E 103°54'0 0.0
2018-Aug-13 15:59N 01°05' E 103°54'0 0.0
2018-Aug-13 15:26N 01°05' E 103°54'0 0.0
2018-Aug-13 14:55N 01°05' E 103°54'0 0.0
2018-Aug-13 14:31N 01°05' E 103°54'0 0.0
2018-Aug-13 13:57N 01°05' E 103°54'0 0.0
2018-Aug-13 13:30N 01°05' E 103°54'0 0.0
2018-Aug-13 13:00N 01°05' E 103°54'0 0.0
2018-Aug-13 12:30N 01°05' E 103°54'0 0.0
2018-Aug-13 11:59N 01°05' E 103°54'0 0.0
2018-Aug-13 11:30N 01°05' E 103°54'0 0.0
2018-Aug-13 11:00N 01°05' E 103°54'0 0.0
2018-Aug-13 10:30N 01°05' E 103°54'0 0.0
2018-Aug-13 10:00N 01°05' E 103°54'0 0.0
2018-Aug-13 09:30N 01°05' E 103°54'0 0.0
2018-Aug-13 09:00N 01°05' E 103°54'0 0.0
2018-Aug-13 08:30N 01°05' E 103°54'0 0.0
2018-Aug-13 08:00N 01°05' E 103°54'0 0.0
2018-Aug-13 07:30N 01°05' E 103°54'0 0.0
2018-Aug-13 07:00N 01°05' E 103°54'0 0.0
2018-Aug-13 06:30N 01°05' E 103°54'0 0.0
2018-Aug-13 06:00N 01°05' E 103°54'0 0.0
2018-Aug-13 05:30N 01°05' E 103°54'0 0.0
2018-Aug-13 05:00N 01°05' E 103°54'0 0.0
2018-Aug-13 04:30N 01°05' E 103°54'0 0.0
2018-Aug-13 04:00N 01°05' E 103°54'0 0.0
2018-Aug-13 03:30N 01°05' E 103°54'0 0.0
2018-Aug-13 02:59N 01°05' E 103°54'0 0.0
2018-Aug-13 02:30N 01°05' E 103°54'0 0.0
2018-Aug-13 01:57N 01°05' E 103°54'0 0.0
2018-Aug-13 01:30N 01°05' E 103°54'0 0.0
2018-Aug-13 01:00N 01°05' E 103°54'0 0.0
2018-Aug-13 00:30N 01°05' E 103°54'0 0.0
2018-Aug-12 23:59N 01°05' E 103°54'0 0.0
2018-Aug-12 23:30N 01°05' E 103°54'0 0.0
2018-Aug-12 22:59N 01°05' E 103°54'0 0.0
2018-Aug-12 22:30N 01°05' E 103°54'0 0.0
2018-Aug-12 22:00N 01°05' E 103°54'0 0.0
2018-Aug-12 21:28N 01°05' E 103°54'0 0.0
2018-Aug-12 20:59N 01°05' E 103°54'0 0.0
2018-Aug-12 20:30N 01°05' E 103°54'0 0.0
2018-Aug-12 19:59N 01°05' E 103°54'0 0.0
2018-Aug-12 19:30N 01°05' E 103°54'0 0.0
2018-Aug-12 18:59N 01°05' E 103°54'0 0.0
2018-Aug-12 18:28N 01°05' E 103°54'0 0.0
2018-Aug-12 18:00N 01°05' E 103°54'0 0.0
2018-Aug-12 17:30N 01°05' E 103°54'0 0.0
2018-Aug-12 16:59N 01°05' E 103°54'0 0.0
2018-Aug-12 16:30N 01°05' E 103°54'0 0.0
2018-Aug-12 15:59N 01°05' E 103°54'0 0.0
2018-Aug-12 15:30N 01°05' E 103°54'0 0.0
2018-Aug-12 14:59N 01°05' E 103°54'0 0.0
2018-Aug-12 14:30N 01°05' E 103°54'0 0.0
2018-Aug-12 13:59N 01°05' E 103°54'0 0.0
2018-Aug-12 13:30N 01°05' E 103°54'0 0.0
2018-Aug-12 12:59N 01°05' E 103°54'0 0.0
2018-Aug-12 12:30N 01°05' E 103°54'0 0.0
2018-Aug-12 11:59N 01°05' E 103°54'0 0.0
2018-Aug-12 11:30N 01°05' E 103°54'0 0.0
2018-Aug-12 10:59N 01°05' E 103°54'0 0.0
2018-Aug-12 10:30N 01°05' E 103°54'0 0.0
2018-Aug-12 09:59N 01°05' E 103°54'0 0.0
2018-Aug-12 09:30N 01°05' E 103°54'0 0.0
2018-Aug-12 09:01N 01°05' E 103°54'0 0.0
2018-Aug-12 08:30N 01°05' E 103°54'0 0.0
2018-Aug-12 07:59N 01°05' E 103°54'0 0.0
2018-Aug-12 07:30N 01°05' E 103°54'0 0.0
2018-Aug-12 07:00N 01°05' E 103°54'0 0.0
2018-Aug-12 06:30N 01°05' E 103°54'0 0.0
2018-Aug-12 06:01N 01°05' E 103°54'0 0.0
2018-Aug-12 05:30N 01°05' E 103°54'0 0.0
2018-Aug-12 04:59N 01°05' E 103°54'0 0.0
2018-Aug-12 04:30N 01°05' E 103°54'0 0.0
2018-Aug-12 03:59N 01°05' E 103°54'0 0.0
2018-Aug-12 03:30N 01°05' E 103°54'0 0.0
2018-Aug-12 02:59N 01°05' E 103°54'0 0.0
2018-Aug-12 02:31N 01°05' E 103°54'0 0.0
2018-Aug-12 01:57N 01°05' E 103°54'0 0.0
2018-Aug-12 01:30N 01°05' E 103°54'0 0.0
2018-Aug-12 01:00N 01°05' E 103°54'0 0.0
2018-Aug-12 00:30N 01°05' E 103°54'0 0.0
2018-Aug-11 23:58N 01°05' E 103°54'0 0.0
2018-Aug-11 23:30N 01°05' E 103°54'0 0.0
2018-Aug-11 22:59N 01°05' E 103°54'0 0.0
2018-Aug-11 22:30N 01°05' E 103°54'0 0.0
2018-Aug-11 22:00N 01°05' E 103°54'0 0.0
2018-Aug-11 21:31N 01°05' E 103°54'0 0.0
2018-Aug-11 20:59N 01°05' E 103°54'0 0.0
2018-Aug-11 20:29N 01°05' E 103°54'0 0.0
2018-Aug-11 20:00N 01°05' E 103°54'0 0.0
2018-Aug-11 19:30N 01°05' E 103°54'0 0.0
2018-Aug-11 19:00N 01°05' E 103°54'0 0.0
2018-Aug-11 18:31N 01°05' E 103°54'0 0.0
2018-Aug-11 18:01N 01°05' E 103°54'0 0.0
2018-Aug-11 17:30N 01°05' E 103°54'0 0.0
2018-Aug-11 16:56N 01°05' E 103°54'0 0.0
2018-Aug-11 16:30N 01°05' E 103°54'0 0.0
2018-Aug-11 16:00N 01°05' E 103°54'0 0.0
2018-Aug-11 15:30N 01°05' E 103°54'0 0.0
2018-Aug-11 14:59N 01°05' E 103°54'0 0.0
2018-Aug-11 14:30N 01°05' E 103°54'0 0.0
2018-Aug-11 13:59N 01°05' E 103°54'0 0.0
2018-Aug-11 13:30N 01°05' E 103°54'0 0.0
2018-Aug-11 12:59N 01°05' E 103°54'0 0.0
2018-Aug-11 12:30N 01°05' E 103°54'0 0.0
2018-Aug-11 12:00N 01°05' E 103°54'0 0.0
2018-Aug-11 11:30N 01°05' E 103°54'0 0.0
2018-Aug-11 10:59N 01°05' E 103°54'0 0.0
2018-Aug-11 10:30N 01°05' E 103°54'0 0.0
2018-Aug-11 09:59N 01°05' E 103°54'0 0.0
2018-Aug-11 09:30N 01°05' E 103°54'0 0.0
2018-Aug-11 09:01N 01°05' E 103°54'0 0.0
2018-Aug-11 08:30N 01°05' E 103°54'0 0.0
2018-Aug-11 07:59N 01°05' E 103°54'0 0.0
2018-Aug-11 07:30N 01°05' E 103°54'0 0.0
2018-Aug-11 06:59N 01°05' E 103°54'0 0.0
2018-Aug-11 06:31N 01°05' E 103°54'0 0.0
2018-Aug-11 05:59N 01°05' E 103°54'0 0.0
2018-Aug-11 05:30N 01°05' E 103°54'0 0.0
2018-Aug-11 05:00N 01°05' E 103°54'0 0.0
2018-Aug-11 04:29N 01°05' E 103°54'0 0.0
2018-Aug-11 03:59N 01°05' E 103°54'0 0.0
2018-Aug-11 03:31N 01°05' E 103°54'0 0.0
2018-Aug-11 03:00N 01°05' E 103°54'0 0.0
2018-Aug-11 02:30N 01°05' E 103°54'0 0.0
2018-Aug-11 01:59N 01°05' E 103°54'0 0.0
2018-Aug-11 01:30N 01°05' E 103°54'0 0.0
2018-Aug-11 00:59N 01°05' E 103°54'0 0.0
2018-Aug-11 00:30N 01°05' E 103°54'0 0.0
2018-Aug-11 00:00N 01°05' E 103°54'0 0.0
2018-Aug-10 23:30N 01°05' E 103°54'0 0.0
2018-Aug-10 23:00N 01°05' E 103°54'0 0.0
2018-Aug-10 22:30N 01°05' E 103°54'0 0.0
2018-Aug-10 22:00N 01°05' E 103°54'0 0.0
2018-Aug-10 21:30N 01°05' E 103°54'0 0.0
2018-Aug-10 21:00N 01°05' E 103°54'0 0.0
2018-Aug-10 20:30N 01°05' E 103°54'0 0.0
2018-Aug-10 20:00N 01°05' E 103°54'0 0.0
2018-Aug-10 19:30N 01°05' E 103°54'0 0.0
2018-Aug-10 19:00N 01°05' E 103°54'0 0.0
2018-Aug-10 18:30N 01°05' E 103°54'0 0.0
2018-Aug-10 17:54N 01°05' E 103°54'0 0.0
2018-Aug-10 17:30N 01°05' E 103°54'0 0.0
2018-Aug-10 16:58N 01°05' E 103°54'0 0.0
2018-Aug-10 16:29N 01°05' E 103°54'0 0.0
2018-Aug-10 16:00N 01°05' E 103°54'0 0.0
2018-Aug-10 15:30N 01°05' E 103°54'0 0.0
2018-Aug-10 14:58N 01°05' E 103°54'0 0.0
2018-Aug-10 14:30N 01°05' E 103°54'0 0.0
2018-Aug-10 14:00N 01°05' E 103°54'0 0.0
2018-Aug-10 13:30N 01°05' E 103°54'0 0.0
2018-Aug-10 13:00N 01°05' E 103°54'0 0.0
2018-Aug-10 12:30N 01°05' E 103°54'0 0.0
2018-Aug-10 11:59N 01°05' E 103°54'0 0.0
2018-Aug-10 11:30N 01°05' E 103°54'0 0.0
2018-Aug-10 10:59N 01°05' E 103°54'0 0.0
2018-Aug-10 10:30N 01°05' E 103°54'0 0.0
2018-Aug-10 09:59N 01°05' E 103°54'0 0.0
2018-Aug-10 09:29N 01°05' E 103°54'0 0.0
2018-Aug-10 09:00N 01°05' E 103°54'0 0.0
2018-Aug-10 08:30N 01°05' E 103°54'0 0.0
2018-Aug-10 08:00N 01°05' E 103°54'0 0.0
2018-Aug-10 07:30N 01°05' E 103°54'0 0.0
2018-Aug-10 06:58N 01°05' E 103°54'0 0.0
2018-Aug-10 06:30N 01°05' E 103°54'0 0.0
2018-Aug-10 05:59N 01°05' E 103°54'0 0.0
2018-Aug-10 05:30N 01°05' E 103°54'0 0.0
2018-Aug-10 04:59N 01°05' E 103°54'0 0.0
2018-Aug-10 04:29N 01°05' E 103°54'0 0.0
2018-Aug-10 03:59N 01°05' E 103°54'0 0.0
2018-Aug-10 03:30N 01°05' E 103°54'0 0.0
2018-Aug-10 03:00N 01°05' E 103°54'0 0.0
2018-Aug-10 02:29N 01°05' E 103°54'0 0.0
2018-Aug-10 02:00N 01°05' E 103°54'0 0.0
2018-Aug-10 01:31N 01°05' E 103°54'0 0.0
2018-Aug-10 01:00N 01°05' E 103°54'0 0.0
2018-Aug-10 00:30N 01°05' E 103°54'0 0.0
2018-Aug-09 23:59N 01°05' E 103°54'0 0.0
2018-Aug-09 23:31N 01°05' E 103°54'0 0.0
2018-Aug-09 22:59N 01°05' E 103°54'0 0.0
2018-Aug-09 22:30N 01°05' E 103°54'0 0.0
2018-Aug-09 22:00N 01°05' E 103°54'0 0.0
2018-Aug-09 21:30N 01°05' E 103°54'0 0.0
2018-Aug-09 21:00N 01°05' E 103°54'0 0.0
2018-Aug-09 20:30N 01°05' E 103°54'0 0.0
2018-Aug-09 19:58N 01°05' E 103°54'0 0.0
2018-Aug-09 19:29N 01°05' E 103°54'0 0.0
2018-Aug-09 19:00N 01°05' E 103°54'0 0.0
2018-Aug-09 18:26N 01°05' E 103°54'0 0.0
2018-Aug-09 18:00N 01°05' E 103°54'0 0.0
2018-Aug-09 17:30N 01°05' E 103°54'0 0.0
2018-Aug-09 16:58N 01°05' E 103°54'0 0.0
2018-Aug-09 16:30N 01°05' E 103°54'0 0.0
2018-Aug-09 16:00N 01°05' E 103°54'0 0.0
2018-Aug-09 15:29N 01°05' E 103°54'0 0.0
2018-Aug-09 15:00N 01°05' E 103°54'0 0.0
2018-Aug-09 14:30N 01°05' E 103°54'0 0.0
2018-Aug-09 14:00N 01°05' E 103°54'0 0.0
2018-Aug-09 13:30N 01°05' E 103°54'0 0.0
2018-Aug-09 13:00N 01°05' E 103°54'0 0.0
2018-Aug-09 12:30N 01°05' E 103°54'0 0.0
2018-Aug-09 11:57N 01°05' E 103°54'0 0.0
2018-Aug-09 11:30N 01°05' E 103°54'0 0.0
2018-Aug-09 11:00N 01°05' E 103°54'0 0.0
2018-Aug-09 10:30N 01°05' E 103°54'0 0.0
2018-Aug-09 10:00N 01°05' E 103°54'0 0.0
2018-Aug-09 09:30N 01°05' E 103°54'0 0.0
2018-Aug-09 09:00N 01°05' E 103°54'0 0.0
2018-Aug-09 08:30N 01°05' E 103°54'0 0.0
2018-Aug-09 08:00N 01°05' E 103°54'0 0.4
2018-Aug-09 07:30N 01°05' E 103°54'0 0.2
2018-Aug-09 06:59N 01°05' E 103°54'0 0.0
2018-Aug-09 06:30N 01°05' E 103°54'0 0.0
2018-Aug-09 06:00N 01°05' E 103°54'0 0.0
2018-Aug-09 05:30N 01°05' E 103°54'0 0.0
2018-Aug-09 05:00N 01°05' E 103°54'0 0.0
2018-Aug-09 04:30N 01°05' E 103°54'0 0.0
2018-Aug-09 04:00N 01°05' E 103°54'0 0.0
2018-Aug-09 03:30N 01°05' E 103°54'0 0.0
2018-Aug-09 03:00N 01°05' E 103°54'0 0.0
2018-Aug-09 02:30N 01°05' E 103°54'0 0.0
2018-Aug-09 02:00N 01°05' E 103°54'0 0.0
2018-Aug-09 01:30N 01°05' E 103°54'0 0.0
2018-Aug-09 01:00N 01°05' E 103°54'0 0.0
2018-Aug-09 00:31N 01°05' E 103°54'0 0.0
2018-Aug-09 00:00N 01°05' E 103°54'0 0.0
2018-Aug-08 23:30N 01°05' E 103°54'0 0.0
2018-Aug-08 23:00N 01°05' E 103°54'0 0.0
2018-Aug-08 22:30N 01°05' E 103°54'0 0.0
2018-Aug-08 21:59N 01°05' E 103°54'0 0.0
2018-Aug-08 21:30N 01°05' E 103°54'0 0.0
2018-Aug-08 20:59N 01°05' E 103°54'0 0.0
2018-Aug-08 20:31N 01°05' E 103°54'0 0.0
2018-Aug-08 19:59N 01°05' E 103°54'0 0.0
2018-Aug-08 19:30N 01°05' E 103°54'0 0.0
2018-Aug-08 19:00N 01°05' E 103°54'0 0.0
2018-Aug-08 18:30N 01°05' E 103°54'0 0.0
2018-Aug-08 17:59N 01°05' E 103°54'0 0.0
2018-Aug-08 17:30N 01°05' E 103°54'0 0.0
2018-Aug-08 17:00N 01°05' E 103°54'0 0.0
2018-Aug-08 16:30N 01°05' E 103°54'0 0.0
2018-Aug-08 16:00N 01°05' E 103°54'0 0.0
2018-Aug-08 15:30N 01°05' E 103°54'0 0.0
2018-Aug-08 14:59N 01°05' E 103°54'0 0.0
2018-Aug-08 14:31N 01°05' E 103°54'0 0.0
2018-Aug-08 13:59N 01°05' E 103°54'0 0.0
2018-Aug-08 13:30N 01°05' E 103°54'0 0.0
2018-Aug-08 13:00N 01°05' E 103°54'0 0.0
2018-Aug-08 12:30N 01°05' E 103°54'0 0.0
2018-Aug-08 11:59N 01°05' E 103°54'0 0.0
2018-Aug-08 11:30N 01°05' E 103°54'0 0.0
2018-Aug-08 11:00N 01°05' E 103°54'0 0.0
2018-Aug-08 10:30N 01°05' E 103°54'0 0.0
2018-Aug-08 10:00N 01°05' E 103°54'0 0.0
2018-Aug-08 09:29N 01°05' E 103°54'0 0.0
2018-Aug-08 08:59N 01°05' E 103°54'0 0.0
2018-Aug-08 08:30N 01°05' E 103°54'0 0.0
2018-Aug-08 07:58N 01°05' E 103°54'0 0.0
2018-Aug-08 07:26N 01°05' E 103°54'0 0.0
2018-Aug-08 06:57N 01°05' E 103°54'0 0.0
2018-Aug-08 06:29N 01°05' E 103°54'0 0.0
2018-Aug-08 05:56N 01°05' E 103°54'0 0.0
2018-Aug-08 05:30N 01°05' E 103°54'0 0.0
2018-Aug-08 04:59N 01°05' E 103°54'0 0.0
2018-Aug-08 04:23N 01°05' E 103°54'0 0.0
2018-Aug-08 04:00N 01°05' E 103°54'0 0.0
2018-Aug-08 03:26N 01°05' E 103°54'0 0.0
2018-Aug-08 03:00N 01°05' E 103°54'0 0.0
2018-Aug-08 02:30N 01°05' E 103°54'0 0.0
2018-Aug-08 01:59N 01°05' E 103°54'0 0.0
2018-Aug-08 01:30N 01°05' E 103°54'0 0.0
2018-Aug-08 01:00N 01°05' E 103°54'0 0.0
2018-Aug-08 00:30N 01°05' E 103°54'0 0.0
2018-Aug-07 23:59N 01°05' E 103°54'0 0.0
2018-Aug-07 23:30N 01°05' E 103°54'0 0.0
2018-Aug-07 22:59N 01°05' E 103°54'0 0.0
2018-Aug-07 22:30N 01°05' E 103°54'0 0.0
2018-Aug-07 22:00N 01°05' E 103°54'0 0.0
2018-Aug-07 21:30N 01°05' E 103°54'0 0.0
2018-Aug-07 20:59N 01°05' E 103°54'0 0.0
2018-Aug-07 20:30N 01°05' E 103°54'0 0.0
2018-Aug-07 19:58N 01°05' E 103°54'0 0.0
2018-Aug-07 19:28N 01°05' E 103°54'0 0.0
2018-Aug-07 18:59N 01°05' E 103°54'0 0.0
2018-Aug-07 18:30N 01°05' E 103°54'0 0.0
2018-Aug-07 18:00N 01°05' E 103°54'0 0.0
2018-Aug-07 17:30N 01°05' E 103°54'0 0.0
2018-Aug-07 17:00N 01°05' E 103°54'0 0.0
2018-Aug-07 16:30N 01°05' E 103°54'0 0.0
2018-Aug-07 16:00N 01°05' E 103°54'0 0.0
2018-Aug-07 15:30N 01°05' E 103°54'0 0.0
2018-Aug-07 14:59N 01°05' E 103°54'0 0.0
2018-Aug-07 14:30N 01°05' E 103°54'0 0.0
2018-Aug-07 14:00N 01°05' E 103°54'0 0.0
2018-Aug-07 13:30N 01°05' E 103°54'0 0.0
2018-Aug-07 13:00N 01°05' E 103°54'0 0.0
2018-Aug-07 12:30N 01°05' E 103°54'0 0.0
2018-Aug-07 12:00N 01°05' E 103°54'0 0.0
2018-Aug-07 11:30N 01°05' E 103°54'0 0.0
2018-Aug-07 10:58N 01°05' E 103°54'0 0.0
2018-Aug-07 10:30N 01°05' E 103°54'0 0.0
2018-Aug-07 10:00N 01°05' E 103°54'0 0.0
2018-Aug-07 09:29N 01°05' E 103°54'0 0.0
2018-Aug-07 08:57N 01°05' E 103°54'0 0.0
2018-Aug-07 08:26N 01°05' E 103°54'0 0.0
2018-Aug-07 07:57N 01°05' E 103°54'0 0.0
2018-Aug-07 07:27N 01°05' E 103°54'0 0.0
2018-Aug-07 07:00N 01°05' E 103°54'0 0.0
2018-Aug-07 06:30N 01°05' E 103°54'0 0.0
2018-Aug-07 06:00N 01°05' E 103°54'0 0.0
2018-Aug-07 05:30N 01°05' E 103°54'0 0.0
2018-Aug-07 05:00N 01°05' E 103°54'0 0.0
2018-Aug-07 04:30N 01°05' E 103°54'0 0.0
2018-Aug-07 03:56N 01°05' E 103°54'0 0.0
2018-Aug-07 03:30N 01°05' E 103°54'0 0.0
2018-Aug-07 03:00N 01°05' E 103°54'0 0.0
2018-Aug-07 02:30N 01°05' E 103°54'0 0.0
2018-Aug-07 01:59N 01°05' E 103°54'0 0.0
2018-Aug-07 01:30N 01°05' E 103°54'0 0.0
2018-Aug-07 01:00N 01°05' E 103°54'0 0.0
2018-Aug-07 00:30N 01°05' E 103°54'0 0.0
2018-Aug-07 00:00N 01°05' E 103°54'0 0.0
2018-Aug-06 23:30N 01°05' E 103°54'0 0.0
2018-Aug-06 22:59N 01°05' E 103°54'0 0.0
2018-Aug-06 22:31N 01°05' E 103°54'0 0.0
2018-Aug-06 22:00N 01°05' E 103°54'0 0.0
2018-Aug-06 21:29N 01°05' E 103°54'0 0.0
2018-Aug-06 20:59N 01°05' E 103°54'0 0.0
2018-Aug-06 20:30N 01°05' E 103°54'0 0.0
2018-Aug-06 19:59N 01°05' E 103°54'0 0.0
2018-Aug-06 19:31N 01°05' E 103°54'0 0.0
2018-Aug-06 19:00N 01°05' E 103°54'0 0.0
2018-Aug-06 18:30N 01°05' E 103°54'0 0.0
2018-Aug-06 17:59N 01°05' E 103°54'0 0.0
2018-Aug-06 17:30N 01°05' E 103°54'0 0.0
2018-Aug-06 17:01N 01°05' E 103°54'0 0.0
2018-Aug-06 16:30N 01°05' E 103°54'0 0.0
2018-Aug-06 15:59N 01°05' E 103°54'0 0.0
2018-Aug-06 15:30N 01°05' E 103°54'0 0.0
2018-Aug-06 14:59N 01°05' E 103°54'0 0.0
2018-Aug-06 14:31N 01°05' E 103°54'0 0.0
2018-Aug-06 13:59N 01°05' E 103°54'0 0.0
2018-Aug-06 13:28N 01°05' E 103°54'0 0.0
2018-Aug-06 12:59N 01°05' E 103°54'0 0.0
2018-Aug-06 12:30N 01°05' E 103°54'0 0.0
2018-Aug-06 12:01N 01°05' E 103°54'0 0.0
2018-Aug-06 11:30N 01°05' E 103°54'0 0.0
2018-Aug-06 10:58N 01°05' E 103°54'0 0.0
2018-Aug-06 10:30N 01°05' E 103°54'0 0.0
2018-Aug-06 09:55N 01°05' E 103°54'0 0.0
2018-Aug-06 09:28N 01°05' E 103°54'0 0.0
2018-Aug-06 08:59N 01°05' E 103°54'0 0.0
2018-Aug-06 08:30N 01°05' E 103°54'0 0.0
2018-Aug-06 07:52N 01°05' E 103°54'0 0.0
2018-Aug-06 07:29N 01°05' E 103°54'0 0.0
2018-Aug-06 06:59N 01°05' E 103°54'0 0.0
2018-Aug-06 06:26N 01°05' E 103°54'0 0.0
2018-Aug-06 06:00N 01°05' E 103°54'0 0.0
2018-Aug-06 05:31N 01°05' E 103°54'0 0.0
2018-Aug-06 04:57N 01°05' E 103°54'0 0.0
2018-Aug-06 04:30N 01°05' E 103°54'0 0.0
2018-Aug-05 21:13N 01°05' E 103°54'0 0.0
2018-Aug-05 21:00N 01°05' E 103°54'0 0.0
2018-Aug-05 20:30N 01°05' E 103°54'0 0.0
2018-Aug-05 19:53N 01°05' E 103°54'0 0.0
2018-Aug-05 19:30N 01°05' E 103°54'0 0.0
2018-Aug-05 18:59N 01°05' E 103°54'0 0.0
2018-Aug-05 18:29N 01°05' E 103°54'0 0.0
2018-Aug-05 17:59N 01°05' E 103°54'0 0.0
2018-Aug-05 17:30N 01°05' E 103°54'0 0.0
2018-Aug-05 16:59N 01°05' E 103°54'0 0.0
2018-Aug-05 16:29N 01°05' E 103°54'0 0.0
2018-Aug-05 16:01N 01°05' E 103°54'0 0.0
2018-Aug-05 15:30N 01°05' E 103°54'0 0.0
2018-Aug-05 15:01N 01°05' E 103°54'0 0.0
2018-Aug-05 14:30N 01°05' E 103°54'0 0.0
2018-Aug-05 13:30N 01°05' E 103°54'0 0.0
2018-Aug-05 12:59N 01°05' E 103°54'0 0.0
2018-Aug-05 12:30N 01°05' E 103°54'0 0.0
2018-Aug-05 12:00N 01°05' E 103°54'0 0.0
2018-Aug-05 11:30N 01°05' E 103°54'0 0.0
2018-Aug-05 10:59N 01°05' E 103°54'0 0.0
2018-Aug-05 10:30N 01°05' E 103°54'0 0.0
2018-Aug-05 09:58N 01°05' E 103°54'0 0.0
2018-Aug-05 09:30N 01°05' E 103°54'0 0.0
2018-Aug-05 09:01N 01°05' E 103°54'0 0.0
2018-Aug-05 08:29N 01°05' E 103°54'0 0.0
2018-Aug-05 08:00N 01°05' E 103°54'0 0.0
2018-Aug-05 07:29N 01°05' E 103°54'0 0.0
2018-Aug-05 06:59N 01°05' E 103°54'0 0.0
2018-Aug-05 06:26N 01°05' E 103°54'0 0.0
2018-Aug-05 05:52N 01°05' E 103°54'0 0.0
2018-Aug-05 05:30N 01°05' E 103°54'0 0.0
2018-Aug-05 05:00N 01°05' E 103°54'0 0.0
2018-Aug-05 04:30N 01°05' E 103°54'0 0.0
2018-Aug-05 03:58N 01°05' E 103°54'0 0.0
2018-Aug-05 03:30N 01°05' E 103°54'0 0.0
2018-Aug-05 03:00N 01°05' E 103°54'0 0.0
2018-Aug-05 02:31N 01°05' E 103°54'0 0.0
2018-Aug-05 02:00N 01°05' E 103°54'0 0.0
2018-Aug-05 01:30N 01°05' E 103°54'0 0.0
2018-Aug-05 00:59N 01°05' E 103°54'0 0.0
2018-Aug-05 00:30N 01°05' E 103°54'0 0.0
2018-Aug-05 00:00N 01°05' E 103°54'0 0.0
2018-Aug-04 23:30N 01°05' E 103°54'  

Dump ship's entire track history